createdAt,value
2023-02-25T00:00:31.331Z,11.30
2023-02-25T00:02:59.208Z,10.27
2023-02-25T00:05:26.742Z,11.83
2023-02-25T00:07:54.096Z,10.07
2023-02-25T00:10:20.923Z,10.33
2023-02-25T00:12:47.767Z,9.80
2023-02-25T00:15:14.622Z,9.50
2023-02-25T00:17:41.431Z,9.50
2023-02-25T00:20:09.968Z,10.30
2023-02-25T00:22:36.750Z,10.97
2023-02-25T00:25:03.662Z,10.67
2023-02-25T00:27:30.490Z,10.60
2023-02-25T00:29:57.379Z,10.30
2023-02-25T00:32:24.302Z,10.33
2023-02-25T00:34:52.201Z,13.17
2023-02-25T00:37:19.183Z,16.67
2023-02-25T00:39:46.295Z,18.77
2023-02-25T00:42:14.633Z,15.83
2023-02-25T00:44:46.468Z,13.77
2023-02-25T00:47:14.512Z,13.27
2023-02-25T00:49:42.056Z,12.73
2023-02-25T00:52:09.219Z,11.77
2023-02-25T00:54:37.109Z,13.03
2023-02-25T00:57:04.221Z,13.00
2023-02-25T00:59:31.481Z,10.83
2023-02-25T01:01:59.010Z,10.60
2023-02-25T01:04:26.386Z,10.27
2023-02-25T01:06:54.765Z,9.47
2023-02-25T01:09:22.198Z,10.03
2023-02-25T01:11:49.966Z,11.10
2023-02-25T01:14:21.354Z,12.23
2023-02-25T01:16:49.183Z,10.73
2023-02-25T01:19:21.393Z,10.13
2023-02-25T01:21:50.077Z,11.47
2023-02-25T01:24:19.211Z,9.50
2023-02-25T01:26:47.427Z,9.60
2023-02-25T01:29:17.515Z,9.30
2023-02-25T01:31:44.915Z,9.73
2023-02-25T01:34:16.230Z,9.47
2023-02-25T01:36:43.401Z,9.83
2023-02-25T01:39:10.683Z,10.10
2023-02-25T01:41:37.829Z,9.63
2023-02-25T01:44:10.938Z,9.93
2023-02-25T01:46:38.675Z,12.13
2023-02-25T01:49:15.337Z,9.83
2023-02-25T01:51:43.855Z,10.03
2023-02-25T01:54:11.182Z,13.60
2023-02-25T01:56:40.493Z,14.13
2023-02-25T01:59:08.324Z,11.33
2023-02-25T02:01:36.780Z,12.57
2023-02-25T02:04:05.802Z,11.33
2023-02-25T02:06:43.487Z,10.63
2023-02-25T02:09:13.488Z,12.13
2023-02-25T02:11:40.768Z,10.67
2023-02-25T02:14:09.045Z,10.37
2023-02-25T02:16:54.712Z,11.33
2023-02-25T02:19:28.065Z,15.70
2023-02-25T02:21:55.003Z,13.23
2023-02-25T02:24:21.793Z,12.47
2023-02-25T02:27:00.555Z,12.93
2023-02-25T02:29:45.452Z,11.77
2023-02-25T02:32:12.435Z,11.57
2023-02-25T02:34:39.336Z,12.17
2023-02-25T02:37:06.207Z,12.40
2023-02-25T02:39:47.693Z,11.77
2023-02-25T02:42:21.441Z,12.73
2023-02-25T02:45:10.826Z,10.13
2023-02-25T02:47:42.744Z,11.10
2023-02-25T02:50:23.982Z,9.23
2023-02-25T02:52:52.360Z,9.53
2023-02-25T02:55:22.499Z,9.33
2023-02-25T02:57:54.632Z,11.10
2023-02-25T03:00:26.615Z,10.17
2023-02-25T03:02:59.340Z,10.17
2023-02-25T03:05:28.333Z,10.53
2023-02-25T03:08:18.785Z,8.40
2023-02-25T03:10:47.091Z,10.00
2023-02-25T03:13:15.163Z,8.93
2023-02-25T03:15:42.839Z,10.03
2023-02-25T03:18:17.214Z,9.03
2023-02-25T03:20:47.249Z,8.70
2023-02-25T03:23:15.906Z,7.47
2023-02-25T03:25:48.675Z,9.40
2023-02-25T03:28:23.773Z,7.10
2023-02-25T03:31:03.009Z,7.60
2023-02-25T03:33:29.966Z,6.83
2023-02-25T03:35:57.921Z,7.03
2023-02-25T03:38:26.830Z,6.57
2023-02-25T03:40:55.739Z,6.67
2023-02-25T03:43:25.933Z,7.47
2023-02-25T03:45:53.288Z,6.07
2023-02-25T03:48:22.879Z,5.73
2023-02-25T03:50:59.485Z,6.47
2023-02-25T03:53:27.592Z,6.17
2023-02-25T03:56:14.777Z,5.50
2023-02-25T03:58:43.970Z,6.20
2023-02-25T04:01:19.705Z,5.40
2023-02-25T04:03:46.645Z,4.93
2023-02-25T04:06:14.714Z,6.00
2023-02-25T04:08:41.843Z,6.37
2023-02-25T04:11:08.734Z,7.13
2023-02-25T04:13:35.854Z,6.83
2023-02-25T04:16:02.734Z,6.27
2023-02-25T04:18:30.447Z,7.77
2023-02-25T04:20:57.331Z,7.10
2023-02-25T04:23:24.133Z,7.07
2023-02-25T04:25:51.111Z,6.80
2023-02-25T04:28:18.014Z,6.40
2023-02-25T04:30:44.960Z,6.57
2023-02-25T04:33:12.178Z,5.37
2023-02-25T04:35:39.419Z,6.03
2023-02-25T04:38:08.973Z,5.93
2023-02-25T04:40:36.319Z,5.20
2023-02-25T04:43:03.370Z,5.27
2023-02-25T04:45:30.235Z,5.77
2023-02-25T04:47:59.575Z,6.40
2023-02-25T04:50:26.675Z,5.80
2023-02-25T04:52:53.500Z,5.70
2023-02-25T04:55:20.353Z,5.87
2023-02-25T04:57:47.143Z,5.40
2023-02-25T05:00:19.332Z,5.90
2023-02-25T05:02:49.434Z,6.00
2023-02-25T05:05:17.011Z,6.10
2023-02-25T05:07:43.944Z,6.07
2023-02-25T05:10:12.072Z,6.40
2023-02-25T05:12:38.840Z,5.87
2023-02-25T05:15:06.021Z,5.97
2023-02-25T05:17:33.129Z,6.40
2023-02-25T05:20:00.193Z,5.10
2023-02-25T05:22:27.722Z,5.43
2023-02-25T05:24:54.712Z,6.27
2023-02-25T05:27:21.475Z,5.53
2023-02-25T05:29:48.290Z,5.13
2023-02-25T05:32:15.321Z,5.17
2023-02-25T05:34:42.178Z,4.80
2023-02-25T05:37:08.957Z,5.67
2023-02-25T05:39:35.856Z,4.67
2023-02-25T05:42:02.602Z,5.03
2023-02-25T05:44:29.488Z,4.53
2023-02-25T05:46:57.846Z,4.47
2023-02-25T05:49:24.771Z,4.17
2023-02-25T05:51:51.562Z,4.20
2023-02-25T05:54:18.491Z,3.97
2023-02-25T05:56:45.288Z,4.30
2023-02-25T05:59:12.645Z,4.57
2023-02-25T06:01:39.537Z,5.40
2023-02-25T06:04:06.707Z,12.53
2023-02-25T06:06:33.579Z,4.97
2023-02-25T06:09:00.406Z,3.53
2023-02-25T06:11:28.219Z,2.93
2023-02-25T06:13:56.142Z,10.70
2023-02-25T06:16:25.971Z,3.83
2023-02-25T06:18:53.549Z,2.20
2023-02-25T06:21:20.378Z,2.67
2023-02-25T06:23:50.459Z,2.33
2023-02-25T06:26:18.302Z,3.43
2023-02-25T06:28:45.152Z,3.63
2023-02-25T06:31:14.072Z,5.83
2023-02-25T06:33:41.754Z,2.10
2023-02-25T06:36:08.890Z,2.00
2023-02-25T06:38:36.172Z,2.90
2023-02-25T06:41:07.302Z,3.13
2023-02-25T06:43:34.320Z,3.50
2023-02-25T06:46:04.307Z,2.60
2023-02-25T06:48:31.272Z,2.67
2023-02-25T06:50:58.090Z,2.83
2023-02-25T06:53:24.928Z,2.40
2023-02-25T06:55:51.722Z,2.17
2023-02-25T06:58:18.634Z,2.00
2023-02-25T07:00:45.402Z,2.60
2023-02-25T07:03:15.499Z,3.00
2023-02-25T07:05:42.406Z,4.37
2023-02-25T07:08:09.273Z,4.60
2023-02-25T07:10:36.158Z,4.93
2023-02-25T07:13:02.979Z,4.93
2023-02-25T07:15:29.768Z,10.23
2023-02-25T07:17:56.760Z,6.43
2023-02-25T07:20:23.567Z,7.03
2023-02-25T07:22:50.881Z,5.83
2023-02-25T07:25:19.181Z,4.90
2023-02-25T07:27:46.368Z,5.63
2023-02-25T07:30:13.473Z,4.90
2023-02-25T07:32:41.241Z,4.80
2023-02-25T07:35:09.016Z,3.77
2023-02-25T07:37:35.916Z,3.50
2023-02-25T07:40:02.698Z,3.13
2023-02-25T07:42:29.594Z,4.30
2023-02-25T07:45:02.038Z,4.40
2023-02-25T07:47:29.327Z,4.43
2023-02-25T07:49:56.070Z,4.03
2023-02-25T07:52:23.068Z,4.20
2023-02-25T07:54:49.809Z,4.63
2023-02-25T07:57:16.706Z,4.30
2023-02-25T07:59:43.484Z,4.17
2023-02-25T08:02:11.312Z,4.00
2023-02-25T08:04:38.336Z,3.40
2023-02-25T08:07:05.207Z,3.50
2023-02-25T08:09:31.984Z,3.10
2023-02-25T08:11:58.942Z,3.50
2023-02-25T08:14:25.733Z,3.40
2023-02-25T08:16:55.510Z,3.70
2023-02-25T08:19:22.288Z,6.10
2023-02-25T08:21:49.146Z,3.77
2023-02-25T08:24:16.022Z,4.20
2023-02-25T08:26:42.809Z,4.33
2023-02-25T08:29:09.663Z,3.63
2023-02-25T08:31:36.603Z,3.63
2023-02-25T08:34:03.484Z,4.50
2023-02-25T08:36:31.457Z,4.30
2023-02-25T08:38:58.718Z,4.30
2023-02-25T08:41:26.803Z,4.00
2023-02-25T08:43:55.057Z,4.07
2023-02-25T08:46:22.882Z,3.90
2023-02-25T08:48:50.508Z,4.10
2023-02-25T08:51:17.803Z,3.60
2023-02-25T08:53:44.703Z,3.63
2023-02-25T08:56:13.457Z,3.77
2023-02-25T08:58:40.736Z,3.57
2023-02-25T09:01:14.947Z,5.87
2023-02-25T09:03:51.430Z,5.93
2023-02-25T09:06:19.582Z,4.30
2023-02-25T09:08:46.362Z,5.03
2023-02-25T09:11:13.334Z,4.20
2023-02-25T09:13:40.106Z,3.67
2023-02-25T09:16:07.368Z,3.40
2023-02-25T09:18:34.283Z,3.20
2023-02-25T09:21:01.088Z,3.40
2023-02-25T09:23:27.983Z,3.30
2023-02-25T09:25:54.826Z,3.67
2023-02-25T09:28:23.650Z,3.00
2023-02-25T09:30:51.518Z,3.20
2023-02-25T09:33:18.494Z,3.27
2023-02-25T09:35:45.445Z,3.50
2023-02-25T09:38:13.237Z,3.43
2023-02-25T09:40:41.791Z,2.77
2023-02-25T09:43:20.636Z,3.47
2023-02-25T09:45:51.452Z,4.33
2023-02-25T09:48:18.318Z,3.13
2023-02-25T09:50:52.138Z,3.17
2023-02-25T09:53:22.008Z,3.90
2023-02-25T09:55:50.928Z,3.67
2023-02-25T09:58:22.049Z,3.17
2023-02-25T10:00:55.582Z,3.33
2023-02-25T10:03:26.423Z,3.07
2023-02-25T10:06:03.149Z,2.90
2023-02-25T10:08:42.026Z,2.78
2023-02-25T10:11:32.120Z,3.07
2023-02-25T10:13:58.933Z,2.30
2023-02-25T10:16:31.538Z,2.87
2023-02-25T10:19:03.893Z,3.53
2023-02-25T10:21:39.812Z,2.40
2023-02-25T10:24:12.640Z,3.20
2023-02-25T10:26:41.648Z,2.60
2023-02-25T10:29:12.910Z,2.97
2023-02-25T10:31:44.239Z,3.47
2023-02-25T10:34:22.273Z,3.00
2023-02-25T10:36:54.086Z,2.80
2023-02-25T10:39:20.898Z,2.00
2023-02-25T10:41:49.492Z,2.60
2023-02-25T10:44:16.780Z,3.10
2023-02-25T10:47:04.085Z,2.47
2023-02-25T10:49:38.276Z,2.30
2023-02-25T10:52:10.491Z,2.67
2023-02-25T10:54:48.340Z,2.50
2023-02-25T10:57:23.295Z,2.97
2023-02-25T10:59:59.260Z,3.90
2023-02-25T11:02:28.519Z,2.40
2023-02-25T11:04:55.648Z,3.27
2023-02-25T11:07:42.201Z,2.63
2023-02-25T11:10:09.520Z,2.90
2023-02-25T11:12:57.332Z,4.93
2023-02-25T11:15:43.804Z,5.00
2023-02-25T11:18:18.109Z,2.77
2023-02-25T11:20:55.380Z,3.27
2023-02-25T11:23:34.490Z,3.20
2023-02-25T11:26:01.830Z,4.67
2023-02-25T11:28:34.153Z,3.27
2023-02-25T11:31:06.361Z,4.27
2023-02-25T11:33:38.864Z,2.83
2023-02-25T11:36:06.894Z,3.40
2023-02-25T11:38:38.188Z,3.90
2023-02-25T11:41:14.113Z,3.93
2023-02-25T11:43:42.513Z,3.20
2023-02-25T11:46:13.153Z,5.20
2023-02-25T11:48:47.405Z,4.30
2023-02-25T11:51:26.690Z,3.60
2023-02-25T11:53:59.485Z,5.97
2023-02-25T11:56:29.353Z,4.93
2023-02-25T11:59:15.210Z,4.40
2023-02-25T12:01:42.027Z,5.60
2023-02-25T12:04:14.592Z,4.93
2023-02-25T12:06:50.313Z,10.60
2023-02-25T12:09:44.345Z,5.77
2023-02-25T12:12:14.244Z,4.00
2023-02-25T12:14:43.760Z,6.87
2023-02-25T12:17:28.418Z,4.20
2023-02-25T12:19:58.121Z,5.43
2023-02-25T12:22:46.974Z,3.30
2023-02-25T12:25:21.013Z,7.50
2023-02-25T12:28:06.615Z,4.47
2023-02-25T12:30:33.481Z,5.57
2023-02-25T12:33:09.750Z,4.97
2023-02-25T12:35:36.551Z,4.73
2023-02-25T12:38:22.269Z,4.77
2023-02-25T12:41:08.042Z,4.83
2023-02-25T12:43:35.008Z,4.10
2023-02-25T12:46:04.739Z,4.70
2023-02-25T12:48:37.720Z,7.80
2023-02-25T12:51:10.420Z,5.10
2023-02-25T12:53:54.760Z,3.80
2023-02-25T12:56:24.420Z,4.50
2023-02-25T12:58:51.133Z,4.20
2023-02-25T13:01:36.210Z,3.83
2023-02-25T13:04:15.070Z,3.67
2023-02-25T13:07:00.109Z,9.00
2023-02-25T13:09:26.990Z,5.43
2023-02-25T13:12:13.732Z,5.27
2023-02-25T13:14:46.849Z,5.90
2023-02-25T13:17:19.591Z,5.90
2023-02-25T13:19:56.533Z,9.90
2023-02-25T13:22:38.447Z,5.60
2023-02-25T13:25:05.412Z,6.93
2023-02-25T13:28:00.926Z,2.83
2023-02-25T13:30:30.826Z,2.10
2023-02-25T13:32:57.704Z,1.90
2023-02-25T13:35:39.819Z,1.30
2023-02-25T13:38:18.958Z,2.13
2023-02-25T13:40:54.974Z,1.50
2023-02-25T13:43:36.809Z,3.00
2023-02-25T13:46:10.079Z,2.27
2023-02-25T13:48:43.781Z,1.83
2023-02-25T13:51:26.177Z,2.40
2023-02-25T13:53:59.705Z,2.70
2023-02-25T13:56:36.705Z,2.67
2023-02-25T13:59:03.565Z,3.77
2023-02-25T14:01:45.395Z,3.77
2023-02-25T14:04:12.241Z,3.90
2023-02-25T14:07:02.058Z,4.27
2023-02-25T14:09:34.701Z,3.70
2023-02-25T14:12:12.995Z,3.83
2023-02-25T14:14:40.201Z,4.63
2023-02-25T14:17:25.859Z,3.97
2023-02-25T14:20:06.698Z,3.83
2023-02-25T14:22:44.299Z,7.07
2023-02-25T14:25:17.280Z,12.33
2023-02-25T14:27:51.431Z,7.03
2023-02-25T14:30:18.324Z,12.23
2023-02-25T14:33:03.885Z,4.60
2023-02-25T14:35:30.650Z,4.23
2023-02-25T14:38:08.618Z,2.90
2023-02-25T14:40:56.692Z,3.60
2023-02-25T14:43:34.543Z,2.60
2023-02-25T14:46:20.108Z,2.30
2023-02-25T14:48:46.955Z,2.40
2023-02-25T14:51:13.703Z,2.33
2023-02-25T14:53:54.374Z,2.10
2023-02-25T14:56:29.531Z,2.30
2023-02-25T14:58:59.594Z,2.50
2023-02-25T15:01:39.198Z,2.33
2023-02-25T15:04:12.039Z,2.70
2023-02-25T15:06:53.654Z,3.00
2023-02-25T15:09:23.828Z,4.30
2023-02-25T15:11:53.491Z,3.43
2023-02-25T15:14:38.178Z,4.17
2023-02-25T15:17:13.917Z,5.10
2023-02-25T15:19:59.913Z,4.70
2023-02-25T15:22:28.162Z,4.63
2023-02-25T15:25:15.216Z,2.80
2023-02-25T15:27:44.837Z,2.97
2023-02-25T15:30:21.616Z,2.23
2023-02-25T15:33:00.680Z,2.80
2023-02-25T15:35:36.596Z,2.47
2023-02-25T15:38:07.492Z,2.43
2023-02-25T15:40:34.586Z,2.47
2023-02-25T15:43:10.608Z,5.80
2023-02-25T15:45:38.249Z,3.00
2023-02-25T15:48:08.103Z,2.70
2023-02-25T15:50:44.282Z,3.30
2023-02-25T15:53:29.870Z,2.60
2023-02-25T15:56:05.930Z,2.60
2023-02-25T15:58:32.774Z,2.57
2023-02-25T16:00:59.608Z,2.50
2023-02-25T16:03:26.584Z,2.43
2023-02-25T16:05:54.050Z,2.83
2023-02-25T16:08:23.818Z,4.50
2023-02-25T16:10:53.173Z,13.03
2023-02-25T16:13:26.755Z,17.87
2023-02-25T16:15:55.837Z,13.00
2023-02-25T16:18:25.738Z,16.23
2023-02-25T16:20:54.896Z,7.87
2023-02-25T16:23:21.775Z,6.87
2023-02-25T16:25:57.552Z,4.03
2023-02-25T16:28:30.620Z,4.17
2023-02-25T16:31:03.899Z,4.10
2023-02-25T16:33:36.364Z,7.03
2023-02-25T16:36:11.328Z,6.70
2023-02-25T16:38:55.968Z,7.87
2023-02-25T16:41:30.272Z,7.07
2023-02-25T16:44:03.350Z,7.40
2023-02-25T16:46:34.939Z,10.27
2023-02-25T16:49:03.007Z,5.40
2023-02-25T16:51:34.796Z,4.87
2023-02-25T16:54:07.779Z,4.73
2023-02-25T16:56:35.393Z,4.57
2023-02-25T16:59:14.243Z,4.10
2023-02-25T17:02:01.404Z,4.77
2023-02-25T17:04:28.193Z,6.43
2023-02-25T17:07:07.704Z,5.20
2023-02-25T17:09:35.410Z,5.63
2023-02-25T17:12:03.621Z,4.77
2023-02-25T17:14:31.253Z,5.97
2023-02-25T17:16:58.512Z,4.77
2023-02-25T17:19:25.688Z,4.50
2023-02-25T17:21:55.132Z,5.13
2023-02-25T17:24:24.727Z,5.37
2023-02-25T17:26:51.950Z,4.63
2023-02-25T17:29:18.968Z,3.53
2023-02-25T17:31:48.849Z,4.10
2023-02-25T17:34:17.853Z,4.13
2023-02-25T17:36:45.219Z,4.30
2023-02-25T17:39:13.561Z,4.23
2023-02-25T17:41:44.090Z,5.43
2023-02-25T17:44:11.650Z,3.60
2023-02-25T17:46:41.596Z,3.30
2023-02-25T17:49:17.729Z,4.33
2023-02-25T17:51:44.624Z,3.73
2023-02-25T17:54:16.761Z,4.43
2023-02-25T17:56:44.175Z,5.23
2023-02-25T17:59:13.925Z,10.33
2023-02-25T18:01:54.149Z,4.50
2023-02-25T18:04:22.282Z,5.67
2023-02-25T18:06:49.128Z,4.93
2023-02-25T18:09:31.870Z,6.53
2023-02-25T18:12:00.848Z,5.00
2023-02-25T18:14:33.961Z,6.93
2023-02-25T18:17:01.488Z,4.70
2023-02-25T18:19:39.052Z,3.33
2023-02-25T18:22:06.499Z,4.27
2023-02-25T18:24:34.974Z,4.17
2023-02-25T18:27:19.374Z,4.60
2023-02-25T18:29:46.181Z,4.43
2023-02-25T18:32:13.225Z,4.07
2023-02-25T18:34:40.264Z,3.47
2023-02-25T18:37:07.188Z,3.43
2023-02-25T18:39:33.966Z,3.77
2023-02-25T18:42:00.938Z,3.10
2023-02-25T18:44:27.793Z,3.60
2023-02-25T18:46:54.585Z,3.63
2023-02-25T18:49:21.448Z,4.50
2023-02-25T18:51:49.058Z,3.83
2023-02-25T18:54:17.577Z,3.90
2023-02-25T18:56:44.492Z,4.17
2023-02-25T18:59:11.339Z,4.07
2023-02-25T19:01:38.490Z,4.30
2023-02-25T19:04:06.038Z,3.00
2023-02-25T19:06:34.020Z,3.30
2023-02-25T19:09:01.104Z,4.23
2023-02-25T19:11:31.571Z,3.53
2023-02-25T19:13:58.455Z,4.13
2023-02-25T19:16:25.699Z,4.13
2023-02-25T19:18:52.916Z,3.27
2023-02-25T19:21:21.188Z,4.10
2023-02-25T19:23:51.806Z,3.07
2023-02-25T19:26:18.772Z,3.47
2023-02-25T19:28:45.587Z,3.70
2023-02-25T19:31:12.830Z,5.80
2023-02-25T19:33:39.769Z,5.00
2023-02-25T19:36:08.578Z,7.13
2023-02-25T19:38:35.840Z,7.87
2023-02-25T19:41:03.898Z,8.23
2023-02-25T19:43:31.822Z,8.03
2023-02-25T19:45:58.962Z,6.00
2023-02-25T19:48:25.820Z,3.33
2023-02-25T19:50:52.627Z,3.00
2023-02-25T19:53:19.514Z,3.17
2023-02-25T19:55:46.432Z,3.10
2023-02-25T19:58:13.394Z,2.80
2023-02-25T20:00:45.912Z,3.03
2023-02-25T20:03:13.778Z,3.07
2023-02-25T20:05:40.640Z,3.70
2023-02-25T20:08:08.161Z,3.03
2023-02-25T20:10:35.158Z,3.63
2023-02-25T20:13:01.948Z,4.10
2023-02-25T20:15:28.742Z,3.93
2023-02-25T20:17:57.721Z,4.17
2023-02-25T20:20:24.619Z,3.30
2023-02-25T20:22:51.559Z,3.63
2023-02-25T20:25:18.436Z,4.10
2023-02-25T20:27:45.298Z,3.10
2023-02-25T20:30:14.608Z,3.73
2023-02-25T20:32:41.963Z,3.50
2023-02-25T20:35:11.630Z,3.77
2023-02-25T20:37:39.413Z,3.60
2023-02-25T20:40:08.448Z,3.13
2023-02-25T20:42:35.382Z,4.33
2023-02-25T20:45:02.288Z,4.60
2023-02-25T20:47:31.159Z,3.80
2023-02-25T20:49:58.436Z,4.30
2023-02-25T20:52:27.049Z,4.33
2023-02-25T20:54:54.326Z,4.30
2023-02-25T20:57:22.264Z,3.87
2023-02-25T20:59:49.444Z,4.97
2023-02-25T21:02:16.615Z,4.53
2023-02-25T21:04:44.405Z,4.27
2023-02-25T21:07:11.237Z,4.20
2023-02-25T21:09:38.508Z,4.03
2023-02-25T21:12:05.937Z,4.03
2023-02-25T21:14:32.837Z,4.60
2023-02-25T21:16:59.780Z,3.67
2023-02-25T21:19:28.277Z,5.47
2023-02-25T21:21:55.523Z,4.93
2023-02-25T21:24:22.553Z,4.60
2023-02-25T21:26:49.727Z,5.07
2023-02-25T21:29:16.616Z,5.00
2023-02-25T21:31:43.737Z,5.40
2023-02-25T21:34:13.059Z,5.60
2023-02-25T21:36:40.718Z,5.93
2023-02-25T21:39:09.425Z,5.50
2023-02-25T21:41:37.228Z,5.80
2023-02-25T21:44:04.122Z,5.60
2023-02-25T21:46:30.924Z,6.30
2023-02-25T21:48:57.825Z,6.37
2023-02-25T21:51:25.467Z,6.23
2023-02-25T21:53:56.147Z,6.40
2023-02-25T21:56:23.823Z,5.53
2023-02-25T21:58:58.051Z,6.77
2023-02-25T22:01:26.394Z,6.07
2023-02-25T22:03:53.482Z,6.50
2023-02-25T22:06:24.110Z,5.40
2023-02-25T22:08:52.060Z,6.20
2023-02-25T22:11:20.100Z,6.17
2023-02-25T22:13:47.146Z,6.40
2023-02-25T22:16:15.113Z,6.80
2023-02-25T22:18:41.887Z,6.03
2023-02-25T22:21:12.784Z,5.90
2023-02-25T22:23:40.348Z,5.40
2023-02-25T22:26:08.370Z,5.83
2023-02-25T22:28:35.769Z,5.67
2023-02-25T22:31:02.891Z,5.43
2023-02-25T22:33:31.021Z,5.60
2023-02-25T22:35:58.814Z,5.57
2023-02-25T22:38:27.470Z,6.03
2023-02-25T22:40:54.677Z,5.73
2023-02-25T22:43:21.622Z,6.03
2023-02-25T22:45:48.463Z,5.97
2023-02-25T22:48:15.331Z,5.80
2023-02-25T22:50:49.176Z,5.77
2023-02-25T22:53:16.524Z,5.73
2023-02-25T22:55:43.669Z,6.20
2023-02-25T22:58:10.783Z,5.90
2023-02-25T23:00:46.343Z,6.20
2023-02-25T23:03:13.204Z,6.27
2023-02-25T23:05:40.476Z,5.60
2023-02-25T23:08:07.241Z,6.03
2023-02-25T23:10:36.180Z,5.77
2023-02-25T23:13:08.112Z,6.40
2023-02-25T23:15:37.073Z,6.93
2023-02-25T23:18:04.157Z,6.83
2023-02-25T23:20:32.216Z,6.50
2023-02-25T23:23:04.565Z,5.87
2023-02-25T23:25:32.307Z,6.07
2023-02-25T23:27:59.362Z,6.07
2023-02-25T23:30:26.840Z,6.40
2023-02-25T23:32:54.021Z,6.30
2023-02-25T23:35:20.860Z,6.03
2023-02-25T23:37:48.221Z,6.30
2023-02-25T23:40:15.434Z,5.70
2023-02-25T23:42:43.300Z,6.00
2023-02-25T23:45:11.938Z,5.40
2023-02-25T23:47:41.355Z,6.23
2023-02-25T23:50:12.708Z,5.20
2023-02-25T23:52:39.565Z,5.70
2023-02-25T23:55:06.746Z,5.47
2023-02-25T23:57:33.978Z,5.47
